Time;durP1;ratioP1;P1;durP2;ratioP2;P2;SDS_P1;SDS_P2;PMS_P1;PMS_P2;Temp;Humidity;BMP_temperature;BMP_pressure;BME280_temperature;BME280_humidity;BME280_pressure;Samples;Min_cycle;Max_cycle;Signal;HPM_P1;HPM_P2
2021/06/12 00:01:41;;;;;;;34.48;20.02;;;;;;;16.30;73.34;100267.62;1736634;81;34648;-84
2021/06/12 00:04:07;;;;;;;22.32;15.68;;;;;;;16.30;73.50;100264.17;1738495;81;25688;-83
2021/06/12 00:06:33;;;;;;;29.98;18.37;;;;;;;16.29;73.40;100266.52;1735961;81;25495;-84
2021/06/12 00:08:59;;;;;;;26.05;15.93;;;;;;;16.28;73.38;100267.52;1737304;81;25206;-83
2021/06/12 00:11:25;;;;;;;22.07;13.38;;;;;;;16.30;73.44;100263.66;1737161;81;31242;-83
2021/06/12 00:13:51;;;;;;;17.20;13.58;;;;;;;16.30;73.44;100263.66;1737494;81;34742;-84
2021/06/12 00:16:18;;;;;;;18.98;13.78;;;;;;;16.32;73.28;100262.16;1738226;80;32397;-84
2021/06/12 00:18:46;;;;;;;13.53;9.90;;;;;;;16.31;73.29;100259.19;1737501;81;25510;-84
2021/06/12 00:21:12;;;;;;;16.50;10.40;;;;;;;16.27;73.21;100252.20;1735715;81;25194;-84
2021/06/12 00:23:38;;;;;;;15.30;9.73;;;;;;;16.19;73.05;100255.05;1737472;81;31317;-83
2021/06/12 00:26:04;;;;;;;14.75;10.03;;;;;;;16.08;73.00;100259.62;1737033;81;35629;-84
2021/06/12 00:28:29;;;;;;;17.98;13.15;;;;;;;16.03;73.23;100249.69;1738314;81;32324;-84
2021/06/12 00:30:55;;;;;;;16.97;9.90;;;;;;;15.99;73.38;100251.13;1738716;81;25648;-84
2021/06/12 00:33:21;;;;;;;14.23;9.58;;;;;;;16.00;73.44;100253.25;1738439;81;33046;-83
2021/06/12 00:35:47;;;;;;;14.73;8.90;;;;;;;16.02;73.46;100253.86;1736735;81;25616;-84
2021/06/12 00:38:13;;;;;;;10.95;7.80;;;;;;;16.00;73.39;100245.34;1737700;81;34760;-83
2021/06/12 00:40:39;;;;;;;13.05;9.13;;;;;;;15.93;73.26;100242.69;1737923;81;26427;-84
2021/06/12 00:43:05;;;;;;;10.72;8.13;;;;;;;15.93;73.41;100243.52;1737190;81;25589;-84
2021/06/12 00:45:33;;;;;;;10.55;8.15;;;;;;;15.94;73.43;100237.22;1737105;80;25718;-83
2021/06/12 00:48:01;;;;;;;11.63;9.05;;;;;;;15.97;73.42;100227.59;1736943;81;26352;-84
2021/06/12 00:50:32;;;;;;;18.80;10.18;;;;;;;16.00;73.45;100231.64;1737412;81;25174;-83
2021/06/12 00:52:59;;;;;;;14.65;9.75;;;;;;;15.98;73.37;100231.83;1737637;81;25827;-84
2021/06/12 00:55:25;;;;;;;13.93;10.30;;;;;;;15.96;73.42;100224.66;1737541;81;25613;-84
2021/06/12 00:57:51;;;;;;;11.22;8.13;;;;;;;15.97;73.33;100226.78;1736156;81;25658;-84
2021/06/12 01:00:21;;;;;;;16.52;9.65;;;;;;;15.96;73.29;100222.53;1737816;81;31146;-84
2021/06/12 01:02:48;;;;;;;12.53;8.30;;;;;;;15.96;73.25;100217.26;1736465;80;25568;-85
2021/06/12 01:05:19;;;;;;;12.03;8.53;;;;;;;15.90;73.14;100220.69;1738243;80;25194;-85
2021/06/12 01:07:45;;;;;;;13.50;8.75;;;;;;;15.83;73.07;100219.89;1736738;81;25691;-85
2021/06/12 01:10:17;;;;;;;10.23;7.78;;;;;;;15.74;73.24;100225.37;1736759;81;25170;-84
2021/06/12 01:12:58;;;;;;;12.15;7.85;;;;;;;15.69;73.38;100221.20;1736967;81;25181;-85
2021/06/12 01:15:28;;;;;;;13.08;7.47;;;;;;;15.72;73.62;100224.75;1737181;81;25714;-84
2021/06/12 01:18:01;;;;;;;12.80;8.35;;;;;;;15.64;73.32;100219.64;1738075;81;25921;-84
2021/06/12 01:21:05;;;;;;;11.15;7.97;;;;;;;15.59;73.50;100215.99;1736583;81;25760;-84
2021/06/12 01:23:58;;;;;;;10.78;8.18;;;;;;;15.55;73.59;100222.19;1733226;80;25760;-82
2021/06/12 01:27:08;;;;;;;13.70;8.15;;;;;;;15.53;73.69;100216.30;1738025;80;25718;-84
2021/06/12 01:30:06;;;;;;;9.50;7.00;;;;;;;15.54;73.70;100217.91;1736137;81;25880;-84
2021/06/12 01:32:36;;;;;;;10.82;7.33;;;;;;;15.53;73.70;100214.98;1737932;81;25735;-84
2021/06/12 01:35:08;;;;;;;10.63;6.90;;;;;;;15.57;73.62;100220.13;1737807;81;25581;-83
2021/06/12 01:37:39;;;;;;;11.63;7.45;;;;;;;15.37;73.13;100219.31;1736007;81;25623;-84
2021/06/12 01:40:08;;;;;;;11.88;8.18;;;;;;;15.24;73.50;100218.25;1736773;81;25672;-83
2021/06/12 01:42:36;;;;;;;12.73;7.85;;;;;;;15.24;73.87;100220.08;1737923;81;25693;-84
2021/06/12 01:45:05;;;;;;;10.13;6.75;;;;;;;15.20;74.00;100217.55;1716519;82;25755;-84
2021/06/12 01:47:31;;;;;;;8.45;7.12;;;;;;;15.13;74.06;100227.24;1736729;80;25643;-84
2021/06/12 01:49:59;;;;;;;12.15;7.15;;;;;;;15.01;74.13;100228.33;1737544;81;33562;-84
2021/06/12 01:52:26;;;;;;;10.18;7.60;;;;;;;14.93;74.44;100226.67;1737604;81;25662;-83
2021/06/12 01:54:55;;;;;;;9.83;6.95;;;;;;;14.93;74.79;100228.50;1742307;80;25571;-83
2021/06/12 01:57:22;;;;;;;11.68;7.33;;;;;;;14.93;75.07;100219.29;1737573;81;25166;-84
2021/06/12 01:59:50;;;;;;;9.33;7.45;;;;;;;14.95;75.19;100219.87;1735037;81;25727;-84
2021/06/12 02:02:17;;;;;;;10.35;8.25;;;;;;;14.97;75.30;100222.63;1735606;81;26347;-84
2021/06/12 02:04:44;;;;;;;9.35;7.62;;;;;;;14.96;75.32;100224.96;1736028;81;25611;-84
2021/06/12 02:07:11;;;;;;;11.08;7.30;;;;;;;14.98;75.43;100224.78;1738254;81;25174;-85
2021/06/12 02:09:39;;;;;;;10.38;7.67;;;;;;;15.00;75.52;100225.37;1738075;81;25629;-85
2021/06/12 02:12:07;;;;;;;9.90;7.10;;;;;;;15.06;75.58;100228.55;1737808;81;25656;-85
2021/06/12 02:14:34;;;;;;;9.15;7.15;;;;;;;15.07;75.51;100227.02;1737699;81;25656;-85
2021/06/12 02:17:01;;;;;;;9.65;7.58;;;;;;;15.08;75.58;100222.56;1737738;81;25214;-85
2021/06/12 02:19:27;;;;;;;15.83;7.95;;;;;;;15.09;75.60;100222.38;1736079;81;25670;-84
2021/06/12 02:21:55;;;;;;;11.90;7.58;;;;;;;15.15;75.50;100219.97;1738048;81;25633;-85
2021/06/12 02:24:21;;;;;;;11.57;7.75;;;;;;;15.17;75.52;100220.56;1738337;81;26338;-84
2021/06/12 02:26:52;;;;;;;9.75;6.85;;;;;;;15.14;75.44;100217.00;1737545;81;25174;-84
2021/06/12 02:29:18;;;;;;;;;;;;;;;15.13;75.36;100221.98;1728599;81;25686;-84
2021/06/12 02:31:50;;;;;;;12.15;6.85;;;;;;;15.13;75.45;100224.09;1741988;80;25690;-84
2021/06/12 02:34:17;;;;;;;10.05;7.35;;;;;;;15.14;75.41;100221.79;1738334;81;25583;-84
2021/06/12 02:36:44;;;;;;;11.95;7.67;;;;;;;15.16;75.44;100226.33;1737950;81;25837;-84
2021/06/12 02:39:11;;;;;;;12.60;7.10;;;;;;;15.16;75.43;100222.38;1737576;81;25194;-84
2021/06/12 02:41:37;;;;;;;11.78;6.75;;;;;;;15.19;75.44;100218.55;1737662;81;25193;-84
2021/06/12 02:44:04;;;;;;;9.18;6.75;;;;;;;15.19;75.49;100214.59;1738305;81;25579;-83
2021/06/12 02:46:33;;;;;;;10.65;7.45;;;;;;;15.17;75.45;100216.13;1737076;80;25644;-84
2021/06/12 02:49:05;;;;;;;9.55;6.78;;;;;;;15.19;75.57;100211.96;1737537;81;25659;-83
2021/06/12 02:51:35;;;;;;;10.63;7.40;;;;;;;15.23;75.63;100210.06;1738097;81;25666;-84
2021/06/12 02:54:01;;;;;;;9.38;7.17;;;;;;;15.23;75.59;100207.94;1738063;81;25413;-84
2021/06/12 02:56:30;;;;;;;10.30;6.92;;;;;;;15.22;75.57;100207.13;1733910;81;25184;-83
2021/06/12 02:59:04;;;;;;;10.20;7.75;;;;;;;15.25;75.62;100208.05;1734572;81;25087;-84
2021/06/12 03:01:31;;;;;;;10.43;7.30;;;;;;;15.23;75.54;100204.80;1745891;80;25535;-84
2021/06/12 03:03:58;;;;;;;11.85;7.00;;;;;;;15.20;75.66;100193.34;1739794;79;25689;-84
2021/06/12 03:06:25;;;;;;;9.05;6.95;;;;;;;15.18;75.82;100200.63;1738728;81;25869;-84
2021/06/12 03:08:52;;;;;;;9.88;7.83;;;;;;;15.21;75.96;100197.59;1738439;81;25656;-84
2021/06/12 03:11:20;;;;;;;9.85;6.50;;;;;;;15.22;75.97;100197.91;1736758;81;25178;-84
2021/06/12 03:13:49;;;;;;;7.70;6.35;;;;;;;15.24;76.04;100198.50;1737528;81;25634;-84
2021/06/12 03:16:17;;;;;;;9.30;7.10;;;;;;;15.24;76.06;100194.55;1716170;81;25193;-85
2021/06/12 03:18:46;;;;;;;8.53;6.78;;;;;;;15.27;76.10;100196.78;1738429;81;25166;-84
2021/06/12 03:21:15;;;;;;;11.90;7.22;;;;;;;15.31;76.09;100201.17;1737484;81;34722;-84
2021/06/12 03:23:41;;;;;;;11.08;7.20;;;;;;;15.29;75.95;100201.36;1736486;81;25696;-85
2021/06/12 03:26:10;;;;;;;9.23;7.67;;;;;;;15.31;76.15;100199.34;1737105;81;25492;-84
2021/06/12 03:28:36;;;;;;;9.50;7.05;;;;;;;15.37;76.22;100203.50;1737589;81;25198;-84
2021/06/12 03:31:04;;;;;;;15.38;7.72;;;;;;;15.42;76.30;100195.82;1737575;81;25206;-84
2021/06/12 03:33:30;;;;;;;10.72;7.33;;;;;;;15.45;76.21;100200.17;1736984;81;25757;-84
2021/06/12 03:35:57;;;;;;;9.85;7.28;;;;;;;15.50;76.33;100197.75;1737223;81;25241;-83
2021/06/12 03:38:24;;;;;;;11.60;7.50;;;;;;;15.57;76.35;100193.79;1736746;81;25699;-84
2021/06/12 03:40:50;;;;;;;11.10;7.72;;;;;;;15.63;76.45;100196.95;1738245;81;25649;-84
2021/06/12 03:43:18;;;;;;;13.70;7.53;;;;;;;15.62;76.43;100193.19;1736950;81;31169;-84
2021/06/12 03:45:44;;;;;;;12.50;8.50;;;;;;;15.63;76.56;100196.95;1738387;81;25170;-85
2021/06/12 03:48:12;;;;;;;11.75;9.08;;;;;;;15.66;76.75;100186.01;1736454;81;25634;-86
2021/06/12 03:50:40;;;;;;;11.38;8.53;;;;;;;15.66;76.68;100183.86;1727374;81;25655;-84
2021/06/12 03:53:07;;;;;;;14.15;8.20;;;;;;;15.69;76.81;100183.00;1737154;81;25667;-84
2021/06/12 03:55:34;;;;;;;10.75;8.48;;;;;;;15.72;76.86;100185.22;1736825;81;25566;-84
2021/06/12 03:58:00;;;;;;;15.68;9.23;;;;;;;15.80;77.10;100185.53;1737667;81;26321;-84
2021/06/12 04:00:32;;;;;;;13.35;9.13;;;;;;;15.89;77.25;100183.49;1734802;81;25138;-84
2021/06/12 04:02:58;;;;;;;13.53;8.53;;;;;;;15.95;77.14;100180.03;1736834;81;25757;-84
2021/06/12 04:05:24;;;;;;;15.10;9.43;;;;;;;15.98;77.16;100183.06;1737568;81;25761;-84
2021/06/12 04:07:50;;;;;;;12.28;9.18;;;;;;;16.06;77.27;100189.95;1737373;81;31293;-84
2021/06/12 04:10:16;;;;;;;13.25;9.53;;;;;;;16.15;77.26;100186.09;1736613;81;35137;-83
2021/06/12 04:12:41;;;;;;;12.90;10.05;;;;;;;16.25;77.24;100192.77;1737092;81;32428;-84
2021/06/12 04:15:08;;;;;;;11.93;9.33;;;;;;;16.35;77.21;100193.16;1738305;81;26055;-84
2021/06/12 04:17:34;;;;;;;20.80;9.45;;;;;;;16.42;77.21;100188.66;1737687;81;25668;-84
2021/06/12 04:20:00;;;;;;;14.03;9.25;;;;;;;16.45;76.88;100191.39;1738016;81;31773;-84
2021/06/12 04:22:27;;;;;;;14.00;10.40;;;;;;;16.50;76.75;100192.38;1736514;81;34699;-84
2021/06/12 04:24:53;;;;;;;11.78;8.68;;;;;;;16.52;76.57;100186.40;1737496;81;26629;-84
2021/06/12 04:27:19;;;;;;;15.20;9.78;;;;;;;16.56;76.61;100188.09;1738389;81;25615;-84
2021/06/12 04:29:44;;;;;;;14.10;10.35;;;;;;;16.56;76.40;100195.53;1735965;81;33590;-84
2021/06/12 04:32:10;;;;;;;14.68;10.03;;;;;;;16.56;76.33;100188.09;1737289;81;31174;-84
2021/06/12 04:34:36;;;;;;;16.23;10.58;;;;;;;16.60;76.32;100185.36;1737090;81;34672;-84
2021/06/12 04:37:02;;;;;;;15.43;9.98;;;;;;;16.64;76.36;100184.75;1738505;81;32473;-84
2021/06/12 04:39:30;;;;;;;16.55;9.85;;;;;;;16.72;76.40;100180.23;1735986;81;25992;-85
2021/06/12 04:41:57;;;;;;;14.90;9.63;;;;;;;16.83;76.52;100184.39;1737677;81;26224;-84
2021/06/12 04:44:23;;;;;;;13.03;10.10;;;;;;;16.92;76.42;100187.59;1737704;81;25677;-84
2021/06/12 04:46:49;;;;;;;13.40;9.48;;;;;;;17.02;76.37;100180.52;1738017;81;35459;-85
2021/06/12 04:49:14;;;;;;;12.03;8.93;;;;;;;17.13;76.38;100179.84;1737957;81;32335;-85
2021/06/12 04:51:41;;;;;;;17.00;9.95;;;;;;;17.20;76.25;100175.34;1716092;82;25758;-85
2021/06/12 04:54:07;;;;;;;15.30;9.83;;;;;;;17.26;75.96;100173.67;1737624;81;25670;-85
2021/06/12 04:56:33;;;;;;;13.25;9.03;;;;;;;17.32;75.88;100176.77;1738287;81;25723;-85
2021/06/12 04:58:59;;;;;;;17.40;10.05;;;;;;;17.42;75.76;100184.24;1737535;81;34796;-85
2021/06/12 05:01:24;;;;;;;17.20;9.38;;;;;;;17.52;75.87;100180.10;1736768;81;32415;-85
2021/06/12 05:03:50;;;;;;;15.05;8.60;;;;;;;17.64;75.66;100180.72;1737710;80;25701;-85
2021/06/12 05:06:16;;;;;;;15.95;9.53;;;;;;;17.73;75.70;100180.73;1737729;81;33536;-85
2021/06/12 05:08:42;;;;;;;15.03;9.73;;;;;;;17.82;75.54;100178.69;1736069;81;31275;-85
2021/06/12 05:11:08;;;;;;;13.65;9.98;;;;;;;17.88;75.17;100181.25;1736900;81;34685;-85
2021/06/12 05:13:35;;;;;;;13.45;9.40;;;;;;;17.95;75.15;100181.18;1736964;81;25185;-84
2021/06/12 05:16:02;;;;;;;16.12;9.35;;;;;;;18.04;74.95;100179.09;1735201;82;26403;-85
2021/06/12 05:18:38;;;;;;;15.03;10.40;;;;;;;18.15;75.03;100174.39;1737645;81;25722;-85
2021/06/12 05:20:56;;;;;;;13.85;9.95;;;;;;;18.26;74.79;100166.25;1733026;81;26644;-87
2021/06/12 05:23:22;;;;;;;14.63;10.15;;;;;;;18.38;74.76;100171.88;1736666;81;34591;-86
2021/06/12 05:25:48;;;;;;;14.30;9.88;;;;;;;18.51;74.38;100163.52;1738654;81;31426;-87
2021/06/12 05:28:14;;;;;;;12.82;8.75;;;;;;;18.57;74.18;100167.39;1734592;81;25354;-86
2021/06/12 05:30:40;;;;;;;13.70;9.03;;;;;;;18.66;73.97;100164.44;1736629;81;25206;-87
2021/06/12 05:33:06;;;;;;;14.73;8.88;;;;;;;18.75;73.74;100161.30;1737617;81;31149;-87
2021/06/12 05:35:31;;;;;;;14.93;9.08;;;;;;;18.85;73.51;100163.41;1737500;81;34725;-87
2021/06/12 05:37:57;;;;;;;12.68;8.15;;;;;;;18.94;73.21;100158.10;1738734;81;30532;-88
2021/06/12 05:40:23;;;;;;;19.02;8.48;;;;;;;19.02;73.22;100156.46;1736783;81;25711;-86
2021/06/12 05:42:49;;;;;;;13.60;8.60;;;;;;;19.09;73.19;100153.70;1736049;81;33003;-87
2021/06/12 05:45:15;;;;;;;12.35;8.23;;;;;;;19.14;72.90;100157.01;1735808;81;31175;-84
2021/06/12 05:47:41;;;;;;;10.63;7.87;;;;;;;19.18;72.74;100153.69;1733622;81;25855;-84
2021/06/12 05:50:08;;;;;;;14.07;8.13;;;;;;;19.26;72.71;100153.36;1738348;82;25214;-84
2021/06/12 05:52:34;;;;;;;12.65;8.15;;;;;;;19.40;72.88;100149.19;1735507;81;25722;-84
2021/06/12 05:55:00;;;;;;;10.98;8.35;;;;;;;19.55;73.02;100153.51;1736926;81;25736;-83
2021/06/12 05:57:26;;;;;;;16.60;8.63;;;;;;;19.66;72.41;100154.59;1736729;81;31148;-84
2021/06/12 05:59:52;;;;;;;12.95;7.37;;;;;;;19.69;71.77;100152.80;1735230;81;25663;-84
2021/06/12 06:02:17;;;;;;;10.45;6.70;;;;;;;19.72;71.66;100146.53;1737295;81;25861;-84
2021/06/12 06:04:43;;;;;;;10.43;6.83;;;;;;;19.78;70.86;100144.80;1732932;80;25292;-85
2021/06/12 06:07:09;;;;;;;14.55;7.45;;;;;;;19.86;70.62;100147.60;1737426;80;33867;-88
2021/06/12 06:09:35;;;;;;;13.18;6.80;;;;;;;19.96;70.60;100141.20;1737210;80;31277;-87
2021/06/12 06:12:01;;;;;;;9.48;6.42;;;;;;;20.06;69.52;100138.78;1736187;81;25655;-85
2021/06/12 06:14:27;;;;;;;12.63;6.55;;;;;;;20.19;70.05;100145.69;1732696;81;25227;-88
2021/06/12 06:16:53;;;;;;;16.37;6.55;;;;;;;20.30;69.54;100142.20;1734095;81;26018;-84
2021/06/12 06:19:19;;;;;;;12.75;6.20;;;;;;;20.39;68.90;100141.31;1733761;81;33065;-84
2021/06/12 06:21:45;;;;;;;10.38;6.08;;;;;;;20.46;68.32;100141.16;1734261;81;25324;-86
2021/06/12 06:24:11;;;;;;;11.00;6.05;;;;;;;20.48;67.79;100137.23;1734819;81;25689;-87
2021/06/12 06:26:37;;;;;;;9.15;6.40;;;;;;;20.53;67.39;100133.88;1734646;81;25885;-88
2021/06/12 06:29:03;;;;;;;9.43;5.95;;;;;;;20.60;67.62;100129.27;1715609;81;25348;-86
2021/06/12 06:31:28;;;;;;;7.58;5.75;;;;;;;20.65;67.48;100128.55;1735290;81;33557;-86
2021/06/12 06:33:55;;;;;;;8.25;5.83;;;;;;;20.74;67.25;100131.13;1735027;81;31798;-85
2021/06/12 06:36:21;;;;;;;8.05;6.15;;;;;;;20.77;66.27;100133.30;1733656;81;25151;-87
2021/06/12 06:38:47;;;;;;;9.73;6.03;;;;;;;20.74;66.25;100131.13;1734212;81;25789;-88
2021/06/12 06:41:13;;;;;;;18.95;9.53;;;;;;;20.80;65.89;100130.16;1740823;81;25292;-89
2021/06/12 06:43:38;;;;;;;7.97;5.92;;;;;;;20.87;65.71;100132.66;1737255;81;33060;-89
2021/06/12 06:46:04;;;;;;;11.60;5.97;;;;;;;20.96;65.82;100137.37;1736738;81;31216;-89
2021/06/12 06:48:30;;;;;;;9.25;6.80;;;;;;;21.01;66.19;100140.64;1736255;81;25698;-88
2021/06/12 06:50:56;;;;;;;13.25;7.62;;;;;;;21.11;65.84;100134.68;1737596;81;25204;-89
2021/06/12 06:53:22;;;;;;;10.05;6.67;;;;;;;21.21;65.72;100140.17;1737640;81;25292;-89
2021/06/12 06:55:48;;;;;;;11.05;7.20;;;;;;;21.25;64.92;100136.80;1737051;81;33640;-86
2021/06/12 06:58:14;;;;;;;10.88;6.83;;;;;;;21.25;64.57;100144.78;1736439;81;31164;-84
2021/06/12 07:00:39;;;;;;;10.25;7.05;;;;;;;21.27;65.01;100142.66;1735325;81;25489;-91
2021/06/12 07:03:06;;;;;;;12.50;7.05;;;;;;;21.34;65.05;100137.20;1737965;81;25208;-85
2021/06/12 07:05:31;;;;;;;14.10;6.90;;;;;;;21.40;64.88;100142.11;1737850;81;25723;-87
2021/06/12 07:07:57;;;;;;;10.32;6.80;;;;;;;21.50;65.60;100130.31;1733559;81;33530;-87
2021/06/12 07:10:23;;;;;;;8.65;5.80;;;;;;;21.65;65.48;100131.84;1735688;80;31235;-86
2021/06/12 07:12:49;;;;;;;9.08;5.75;;;;;;;21.78;64.35;100122.73;1735024;81;25604;-86
2021/06/12 07:15:16;;;;;;;8.93;5.83;;;;;;;21.86;63.73;100123.64;1736490;81;25754;-85
2021/06/12 07:17:41;;;;;;;14.30;7.15;;;;;;;;;;1738145;81;25711;-84
2021/06/12 07:20:09;;;;;;;12.10;6.65;;;;;;;21.99;62.56;100119.00;1734440;81;33087;-82
2021/06/12 07:22:35;;;;;;;11.08;7.53;;;;;;;22.06;63.02;100122.30;1738757;81;25563;-90
2021/06/12 07:25:03;;;;;;;9.90;6.28;;;;;;;22.13;61.92;100113.08;1735587;81;25153;-87
2021/06/12 07:27:29;;;;;;;13.93;6.78;;;;;;;22.12;62.15;100118.11;1734775;81;25311;-87
2021/06/12 07:29:55;;;;;;;10.13;6.97;;;;;;;22.15;62.09;100118.14;1737665;81;25352;-88
2021/06/12 07:32:20;;;;;;;9.70;7.00;;;;;;;22.12;61.77;100118.64;1732953;81;32925;-88
2021/06/12 07:34:46;;;;;;;9.73;6.47;;;;;;;22.13;61.96;100109.09;1739405;81;25412;-91
2021/06/12 07:37:12;;;;;;;8.48;6.28;;;;;;;22.23;62.36;100113.74;1738193;81;25177;-87
2021/06/12 07:39:37;;;;;;;9.13;6.97;;;;;;;22.37;61.41;100119.50;1739673;81;25695;-83
2021/06/12 07:42:04;;;;;;;15.53;7.12;;;;;;;22.38;61.39;100109.94;1737088;81;25630;-89
2021/06/12 07:44:30;;;;;;;11.10;6.42;;;;;;;22.41;61.15;100103.84;1736106;81;25563;-87
2021/06/12 07:46:56;;;;;;;9.55;6.47;;;;;;;22.33;60.78;100099.22;1732766;81;25190;-88
2021/06/12 07:49:21;;;;;;;12.25;5.92;;;;;;;22.27;60.69;100102.09;1734497;81;25233;-87
2021/06/12 07:51:48;;;;;;;9.25;5.87;;;;;;;22.25;60.73;100102.33;1734589;81;25197;-88
2021/06/12 07:54:13;;;;;;;9.75;5.83;;;;;;;22.25;61.05;100098.33;1738525;81;25699;-86
2021/06/12 07:56:39;;;;;;;10.90;6.45;;;;;;;22.29;61.08;100096.80;1736948;81;25703;-87
2021/06/12 07:59:05;;;;;;;9.20;5.80;;;;;;;22.39;61.10;100088.90;1738341;81;25201;-88
2021/06/12 08:01:33;;;;;;;9.20;6.00;;;;;;;22.50;59.97;100085.02;1731697;81;25676;-88
2021/06/12 08:03:59;;;;;;;10.18;6.03;;;;;;;22.55;59.93;100088.54;1737474;81;25170;-87
2021/06/12 08:06:24;;;;;;;10.45;5.62;;;;;;;22.64;59.21;100084.09;1736852;80;25281;-89
2021/06/12 08:08:50;;;;;;;11.05;5.42;;;;;;;22.73;59.60;100078.60;1734708;80;25187;-88
2021/06/12 08:11:16;;;;;;;7.35;4.55;;;;;;;22.81;58.16;100078.14;1738943;82;25462;-88
2021/06/12 08:13:42;;;;;;;8.28;3.67;;;;;;;22.77;57.68;100075.16;1739075;81;25171;-88
2021/06/12 08:16:09;;;;;;;5.20;3.52;;;;;;;22.79;57.30;100073.59;1738704;81;25197;-88
2021/06/12 08:18:34;;;;;;;8.10;4.15;;;;;;;22.82;57.37;100062.42;1737742;81;25690;-88
2021/06/12 08:21:01;;;;;;;5.65;3.27;;;;;;;22.88;56.71;100065.39;1739029;81;25675;-88
2021/06/12 08:23:26;;;;;;;6.50;3.62;;;;;;;22.91;56.86;100070.22;1735752;81;25180;-87
2021/06/12 08:25:52;;;;;;;8.10;4.33;;;;;;;22.96;57.24;100064.96;1739435;81;25213;-87
2021/06/12 08:28:18;;;;;;;6.62;3.62;;;;;;;23.00;56.25;100066.61;1736200;81;25145;-88
2021/06/12 08:30:44;;;;;;;9.90;4.28;;;;;;;22.98;56.90;100062.85;1736514;80;25304;-89
2021/06/12 08:33:10;;;;;;;7.78;4.53;;;;;;;23.08;57.07;100064.81;1737942;81;33429;-81
2021/06/12 08:35:38;;;;;;;9.23;4.78;;;;;;;23.15;56.47;100055.25;1738611;82;25635;-81
2021/06/12 08:38:05;;;;;;;6.33;4.67;;;;;;;23.21;56.87;100060.88;1738130;81;25630;-84
2021/06/12 08:40:32;;;;;;;7.20;3.80;;;;;;;23.31;57.05;100053.49;1738320;82;25173;-82
2021/06/12 08:42:58;;;;;;;5.62;3.65;;;;;;;23.42;56.37;100051.16;1737659;81;25538;-83
2021/06/12 08:45:28;;;;;;;7.08;3.90;;;;;;;23.51;56.26;100049.60;1737497;81;25644;-81
2021/06/12 08:47:56;;;;;;;5.55;3.80;;;;;;;23.51;54.53;100050.94;1737095;81;25647;-82
2021/06/12 08:50:24;;;;;;;6.40;3.87;;;;;;;23.51;54.59;100050.94;1737741;81;43711;-87
2021/06/12 08:52:54;;;;;;;5.62;3.58;;;;;;;23.54;54.26;100051.75;1738132;81;25186;-83
2021/06/12 08:55:20;;;;;;;7.50;3.35;;;;;;;23.53;53.23;100047.48;1736304;81;25715;-86
2021/06/12 08:57:46;;;;;;;7.08;3.17;;;;;;;23.52;54.09;100047.73;1737680;81;25731;-84
2021/06/12 09:00:15;;;;;;;5.45;2.90;;;;;;;23.55;53.74;100045.91;1733445;81;25650;-85
2021/06/12 09:03:12;;;;;;;8.05;3.30;;;;;;;23.59;54.47;100049.11;1738970;81;26354;-79
2021/06/12 09:05:48;;;;;;;5.15;2.90;;;;;;;23.53;53.72;100048.82;1746505;80;25689;-77
2021/06/12 09:08:22;;;;;;;5.55;3.42;;;;;;;23.46;52.54;100042.39;1747837;80;25651;-81
2021/06/12 09:11:08;;;;;;;5.35;3.20;;;;;;;23.39;53.18;100046.34;1745602;80;25190;-80
2021/06/12 09:13:58;;;;;;;8.73;3.22;;;;;;;23.38;53.30;100038.05;1745430;80;25229;-77
2021/06/12 09:16:38;;;;;;;11.38;4.78;;;;;;;23.39;52.95;100037.01;1744185;80;25661;-83
2021/06/12 09:19:09;;;;;;;6.05;3.00;;;;;;;23.39;53.31;100036.47;1734090;80;25650;-86
2021/06/12 09:21:50;;;;;;;6.40;3.45;;;;;;;23.47;53.88;100035.98;1743698;80;25767;-85
2021/06/12 09:24:32;;;;;;;9.25;3.67;;;;;;;23.61;53.94;100034.98;1745578;80;26481;-83
2021/06/12 09:27:04;;;;;;;12.55;4.70;;;;;;;23.70;52.95;100035.30;1745039;80;25466;-87
2021/06/12 09:29:46;;;;;;;3.75;3.10;;;;;;;23.83;53.75;100022.05;1734984;80;25200;-83
2021/06/12 09:32:19;;;;;;;8.38;3.62;;;;;;;24.04;53.64;100026.93;1744425;80;25617;-85
2021/06/12 09:34:54;;;;;;;6.95;3.75;;;;;;;24.22;53.17;100023.75;1745601;80;26406;-76
2021/06/12 09:37:21;;;;;;;7.10;3.65;;;;;;;24.31;52.66;100024.86;1740995;80;25818;-87
2021/06/12 09:40:06;;;;;;;10.13;4.08;;;;;;;24.28;52.42;100014.70;1746916;80;25142;-79
2021/06/12 09:42:55;;;;;;;6.55;3.83;;;;;;;24.21;51.74;100014.69;1739494;80;25217;-89
2021/06/12 09:45:32;;;;;;;5.83;3.58;;;;;;;24.19;52.17;100011.47;1749353;80;25141;-89
2021/06/12 09:48:17;;;;;;;5.70;3.80;;;;;;;24.19;52.55;100013.60;1746049;80;25589;-80
2021/06/12 09:50:46;;;;;;;6.33;4.03;;;;;;;24.15;52.02;100010.66;1745168;80;25607;-79
2021/06/12 09:53:20;;;;;;;6.60;4.28;;;;;;;24.14;52.02;100004.23;1745371;80;25798;-80
2021/06/12 09:55:47;;;;;;;6.17;4.08;;;;;;;24.09;52.20;99998.38;1745712;80;25137;-85
2021/06/12 09:58:14;;;;;;;6.95;4.12;;;;;;;24.05;52.33;99999.95;1745333;80;25183;-84
2021/06/12 10:00:47;;;;;;;5.33;4.15;;;;;;;24.01;52.44;99996.22;1737180;80;25508;-91
2021/06/12 10:03:32;;;;;;;8.03;3.98;;;;;;;24.02;52.22;99989.00;1747198;81;25240;-88
2021/06/12 10:06:21;;;;;;;7.87;4.00;;;;;;;24.07;52.88;99985.02;1745190;80;25149;-87
2021/06/12 10:08:50;;;;;;;7.80;3.70;;;;;;;24.26;53.38;99982.65;1746725;80;25291;-89
2021/06/12 10:11:21;;;;;;;8.55;3.52;;;;;;;24.38;52.00;99977.84;1740489;80;25175;-89
2021/06/12 10:13:47;;;;;;;6.12;3.42;;;;;;;24.45;52.38;99966.94;1749623;82;25686;-90
2021/06/12 10:16:15;;;;;;;5.25;3.10;;;;;;;24.58;52.08;99966.38;1747240;80;25149;-88
2021/06/12 10:18:43;;;;;;;5.37;2.98;;;;;;;24.72;51.75;99961.32;1749528;80;25185;-88
2021/06/12 10:21:12;;;;;;;8.05;2.83;;;;;;;24.90;50.76;99956.73;1745611;80;25183;-90
2021/06/12 10:23:39;;;;;;;4.70;2.98;;;;;;;25.07;50.63;99955.09;1744692;80;25171;-87
2021/06/12 10:26:07;;;;;;;5.75;2.70;;;;;;;25.15;49.43;99950.55;1748426;80;25506;-90
2021/06/12 10:28:33;;;;;;;5.65;3.10;;;;;;;25.08;48.73;99955.37;1745440;80;25173;-89
2021/06/12 10:31:10;;;;;;;4.03;2.70;;;;;;;24.97;48.50;99948.45;1742478;80;26012;-88
2021/06/12 10:33:43;;;;;;;5.92;2.87;;;;;;;24.83;49.07;99945.53;1748239;80;25179;-87
2021/06/12 10:36:19;;;;;;;3.33;2.45;;;;;;;24.84;49.33;99937.77;1744440;80;25197;-90
2021/06/12 10:38:46;;;;;;;7.58;2.80;;;;;;;24.84;49.10;99939.10;1742769;80;25523;-91
2021/06/12 10:41:16;;;;;;;5.47;2.87;;;;;;;24.83;48.87;99940.19;1739438;80;25211;-88
2021/06/12 10:43:42;;;;;;;4.67;2.85;;;;;;;24.81;48.94;99936.97;1738417;80;25179;-88
2021/06/12 10:46:12;;;;;;;4.50;2.83;;;;;;;24.75;49.19;99935.39;1738738;80;25181;-87
2021/06/12 10:48:49;;;;;;;7.08;2.47;;;;;;;24.72;48.93;99933.25;1738378;80;25618;-87
2021/06/12 10:51:31;;;;;;;4.92;3.00;;;;;;;24.68;49.28;99924.16;1736753;80;25647;-87
2021/06/12 10:54:19;;;;;;;5.28;3.08;;;;;;;24.74;49.33;99925.75;1739484;80;25382;-87
2021/06/12 10:56:56;;;;;;;6.17;3.22;;;;;;;24.93;48.34;99924.64;1742858;80;25812;-83
2021/06/12 10:59:42;;;;;;;4.80;2.92;;;;;;;25.01;47.74;99909.37;1748389;82;25976;-81
2021/06/12 11:05:04;;;;;;;4.30;2.80;;;;;;;25.19;49.24;99904.81;1746457;80;25588;-87
2021/06/12 11:07:36;;;;;;;4.87;2.47;;;;;;;25.32;47.75;99893.24;1745783;80;25754;-81
2021/06/12 11:10:19;;;;;;;4.55;2.55;;;;;;;25.37;47.55;99887.36;1750182;80;25154;-81
2021/06/12 11:12:54;;;;;;;3.33;2.58;;;;;;;25.37;46.69;99873.16;1746948;80;25677;-80
2021/06/12 11:15:28;;;;;;;3.27;2.50;;;;;;;25.27;45.86;99865.20;1745247;80;25204;-80
2021/06/12 11:18:16;;;;;;;6.58;2.58;;;;;;;25.24;46.37;99866.55;1737304;82;25796;-80
2021/06/12 11:20:46;;;;;;;3.95;2.30;;;;;;;25.26;46.37;99853.67;1744868;80;25594;-81
2021/06/12 11:23:20;;;;;;;6.00;2.87;;;;;;;25.35;46.77;99848.03;1740285;80;25670;-81
2021/06/12 11:25:56;;;;;;;5.15;3.00;;;;;;;25.49;46.43;99836.72;1739464;80;25180;-81
2021/06/12 11:28:29;;;;;;;4.08;2.67;;;;;;;25.61;45.84;99837.17;1735001;80;25917;-88
2021/06/12 11:31:22;;;;;;;5.30;2.90;;;;;;;25.57;45.12;99830.23;1738388;80;26417;-90
2021/06/12 11:34:18;;;;;;;4.28;2.90;;;;;;;25.54;45.76;99830.00;1742665;80;25198;-89